Atchison, KS

4:40 PM CDT on July 31, 2014 (GMT -0500)
Shannon Township (KKSATCHI2) Elev 942 ft | 39.56 °N, 95.16 °W | Change Station

Current weather conditions updated 13 seconds ago

Clear
Clear
83.4 °F
Feels Like 83 °F
N
2.0
Wind Variable Wind from NNW
Gusts 2.0 mph

Tomorrow is forecast to be nearly the same temperature as today.

Today
High -- | Low -- °F
--% Chance of Precip.
Yesterday
High -- | Low -- °F
Precip. -- in
6:19 AM 8:34 PM
Waxing Crescent, 21% visible
Pressure 30.06 in
Visibility 10.0 miles
Clouds Clear
Heat Index 83 °F
Dew Point 57 °F
Humidity 41%
Rainfall 0.00 in
Snow Depth Not available.
UV 8 out of 12
Pollen 6.30 out of 12
Air Quality Not available.
Flu Activity Not available.
METAR KSTJ 312053Z AUTO 24004KT 10SM CLR 28/14 A3007 RMK AO2 SLP177 T02780139 56014

More Conditions Fewer Conditions

Pressure 30.06 in
Visibility 10.0 miles
Clouds Clear
Heat Index 83 °F
Dew Point 57 °F
Humidity 41%
Rainfall 0.00 in
Snow Depth Not available.
UV 8 out of 12
Pollen 6.30 out of 12
Air Quality Not available.
Flu Activity Not available.
METAR KSTJ 312053Z AUTO 24004KT 10SM CLR 28/14 A3007 RMK AO2 SLP177 T02780139 56014

More Conditions Fewer Conditions

10-Day Weather Forecast

Almanac

Astronomy

Jul. 31, 2014 Rise Set
Actual Time 6:19 AM CDT 8:34 PM CDT
Civil Twilight 5:49 AM CDT 9:04 PM CDT
Nautical Twilight 5:11 AM CDT 9:41 PM CDT
Astronomical Twilight 4:31 AM CDT 10:21 PM CDT
Moon 10:46 AM CDT 10:48 PM CDT
Length of Visible Light 15h 15m
Length of Day
14h 14m
Tomorrow will be 1m 56s shorter.
Waxing Crescent, 21% of the Moon is Illuminated
Today
Waxing Crescent
Aug 3
First Quarter
Aug 10
Full
Aug 17
Last Quarter
Aug 25
New

Today's Extremes

State Highs State Lows

Community

WunderPhotos

Upload Photos

1,739,457 photos uploaded!

Nearby

Snow Depth

Station Depth Elevation
No new snow has been reported.

Earthquake Activity

City Distance Mag. Time & Date
No recent earthquake activity has been reported nearby.
Minimum magnitude displayed is 2.5.

Coastal Water Temperatures

Place Temperature
No Stations Reporting

Nearby Weather Stations

Station Location Temp. Heat Index Dew Point Humidity Wind Precip. Elev Updated Type
Shannon Township, Atchison, KS 83.4 °F 83 °F 57 °F 41% NNW  at  2.0 mph 0.00 in / hr 942 ft 4:40 PM CDT Normal
Fort Leavenworth, Leavenworth, KS 84.6 °F 85 °F 60 °F 44% ESE  at  2.7 mph - / hr 889 ft 4:34 PM CDT Normal
Downtown leavenworth, Leavenworth, KS 81.9 °F 82 °F 58 °F 44% East  at  3.0 mph 0.00 in / hr 817 ft 4:31 PM CDT Normal
Wyatt Park, St Joseph, MO 85.3 °F 86 °F 62 °F 45% SSW  at  1.0 mph 0.00 in / hr 1000 ft 4:40 PM CDT Rapid Fire
Jefferson County, McLouth, KS 82.9 °F 82 °F 55 °F 39% SSW  at  0.0 mph 0.00 in / hr 1138 ft 4:30 PM CDT Normal
St Joseph, MO 82.0 °F 81 °F 50 °F 33% SE  at  0.0 mph 0.00 in / hr 965 ft 4:40 PM CDT Normal
Highland, KS 83.8 °F 83 °F 56 °F 39% SE  at  2.0 mph 0.00 in / hr 1033 ft 4:40 PM CDT Normal

Show More Stations Show Fewer Stations